Time;durP1;ratioP1;P1;durP2;ratioP2;P2;SDS_P1;SDS_P2;PMS_P1;PMS_P2;Temp;Humidity;BMP_temperature;BMP_pressure;BME280_temperature;BME280_humidity;BME280_pressure;Samples;Min_cycle;Max_cycle;Signal;HPM_P1;HPM_P2
2023/07/29 00:01:15;;;;;;;3.90;2.90;;;;;;;16.84;87.36;96172.69;108316;1279;25405;-76
2023/07/29 00:03:46;;;;;;;4.30;2.90;;;;;;;16.85;87.49;96179.00;108307;1279;22517;-76
2023/07/29 00:06:17;;;;;;;4.50;2.90;;;;;;;16.86;87.60;96176.26;108298;1272;22519;-76
2023/07/29 00:08:49;;;;;;;4.40;3.50;;;;;;;16.85;87.58;96176.02;108320;1279;22626;-77
2023/07/29 00:11:20;;;;;;;3.20;2.90;;;;;;;16.84;87.72;96176.05;108319;1279;25407;-77
2023/07/29 00:13:52;;;;;;;4.80;3.10;;;;;;;16.84;87.65;96179.48;108325;1277;22549;-77
2023/07/29 00:16:23;;;;;;;5.80;3.40;;;;;;;16.84;87.79;96179.11;108342;1273;22521;-77
2023/07/29 00:18:54;;;;;;;3.90;3.10;;;;;;;16.84;87.87;96181.41;108338;1279;25294;-76
2023/07/29 00:21:25;;;;;;;3.60;3.10;;;;;;;16.83;87.84;96177.02;108323;1279;22539;-77
2023/07/29 00:23:58;;;;;;;3.90;3.10;;;;;;;16.81;87.89;96177.79;108321;1279;22704;-76
2023/07/29 00:26:29;;;;;;;4.70;3.30;;;;;;;16.78;87.95;96177.77;108316;1267;22950;-76
2023/07/29 00:29:01;;;;;;;4.30;2.90;;;;;;;16.75;88.15;96177.87;108283;1279;22520;-76
2023/07/29 00:31:32;;;;;;;3.40;2.80;;;;;;;16.73;88.13;96178.94;108355;1268;22530;-76
2023/07/29 00:34:03;;;;;;;3.80;2.90;;;;;;;16.73;88.29;96175.55;108218;1279;22660;-76
2023/07/29 00:36:34;;;;;;;3.70;2.80;;;;;;;16.74;88.39;96176.89;108314;1279;25168;-76
2023/07/29 00:39:05;;;;;;;4.50;2.80;;;;;;;16.74;88.42;96172.70;108357;1263;22553;-76
2023/07/29 00:41:36;;;;;;;5.80;3.30;;;;;;;16.72;88.27;96171.94;108323;1279;24186;-76
2023/07/29 00:44:09;;;;;;;3.90;3.20;;;;;;;16.68;88.32;96172.91;108302;1279;24218;-77
2023/07/29 00:46:41;;;;;;;4.70;3.20;;;;;;;16.65;88.40;96165.30;108309;1279;22520;-76
2023/07/29 00:49:12;;;;;;;3.90;2.60;;;;;;;16.62;88.62;96167.15;108297;1279;22626;-76
2023/07/29 00:51:43;;;;;;;4.50;2.90;;;;;;;16.61;88.71;96169.77;108304;1279;22633;-76
2023/07/29 00:54:15;;;;;;;5.60;3.30;;;;;;;16.60;88.83;96167.73;108309;1279;22588;-77
2023/07/29 00:56:47;;;;;;;3.80;3.40;;;;;;;16.60;88.88;96168.06;108274;1277;26543;-77
2023/07/29 00:59:20;;;;;;;5.90;3.30;;;;;;;16.61;89.02;96163.51;108316;1272;22744;-77
2023/07/29 01:01:51;;;;;;;4.10;3.10;;;;;;;16.64;89.19;96168.18;108356;1272;22541;-76
2023/07/29 01:04:22;;;;;;;6.90;3.60;;;;;;;16.66;89.15;96163.19;108327;1271;22734;-76
2023/07/29 01:07:01;;;;;;;4.40;3.10;;;;;;;16.67;89.34;96166.08;108329;1279;22831;-76
2023/07/29 01:09:37;;;;;;;4.50;3.50;;;;;;;16.66;89.28;96159.15;108399;1272;24221;-76
2023/07/29 01:12:18;;;;;;;3.70;3.10;;;;;;;16.67;89.38;96165.71;108280;1272;25337;-76
2023/07/29 01:15:04;;;;;;;4.30;3.20;;;;;;;16.69;89.50;96162.14;108310;1276;22527;-77
2023/07/29 01:17:41;;;;;;;4.30;3.40;;;;;;;16.70;89.48;96161.47;108324;1279;22598;-77
2023/07/29 01:20:17;;;;;;;4.60;3.20;;;;;;;16.71;89.47;96159.66;108336;1279;23846;-76
2023/07/29 01:22:48;;;;;;;6.20;3.80;;;;;;;16.71;89.47;96160.27;108297;1270;24284;-76
2023/07/29 01:25:19;;;;;;;3.70;2.80;;;;;;;16.70;89.51;96158.57;108286;1274;22533;-76
2023/07/29 01:27:55;;;;;;;5.00;3.30;;;;;;;16.73;89.78;96161.35;108320;1272;22508;-77
2023/07/29 01:30:31;;;;;;;4.90;3.40;;;;;;;16.76;89.70;96158.32;108346;1272;22566;-77
2023/07/29 01:33:11;;;;;;;4.70;3.30;;;;;;;16.75;89.55;96156.73;108327;1279;26458;-76
2023/07/29 01:35:51;;;;;;;6.20;3.50;;;;;;;16.75;89.60;96158.66;108261;1279;24185;-77
2023/07/29 01:38:33;;;;;;;3.80;3.30;;;;;;;16.75;89.63;96160.95;108315;1279;26625;-76
2023/07/29 01:41:07;;;;;;;5.30;3.20;;;;;;;16.77;89.70;96164.48;108355;1272;22524;-76
2023/07/29 01:43:43;;;;;;;5.20;3.40;;;;;;;16.78;89.82;96162.68;108315;1269;22520;-76
2023/07/29 01:46:15;;;;;;;4.40;3.10;;;;;;;16.79;89.79;96164.17;108258;1279;24196;-77
2023/07/29 01:48:48;;;;;;;3.90;3.20;;;;;;;16.79;89.83;96166.09;108312;1272;22550;-76
2023/07/29 01:51:20;;;;;;;3.90;3.00;;;;;;;16.80;89.77;96169.55;108267;1279;24047;-77
2023/07/29 01:53:51;;;;;;;3.80;3.30;;;;;;;16.83;90.02;96168.58;108301;1279;25240;-76
2023/07/29 01:56:22;;;;;;;4.40;3.30;;;;;;;16.85;89.95;96170.13;108300;1272;22524;-77
2023/07/29 01:58:53;;;;;;;5.50;3.50;;;;;;;16.86;90.07;96170.61;108296;1272;25460;-77
2023/07/29 02:01:24;;;;;;;3.80;3.10;;;;;;;16.88;90.14;96172.27;108272;1279;22521;-76
2023/07/29 02:03:55;;;;;;;5.80;3.50;;;;;;;16.89;90.15;96175.82;108325;1272;22523;-76
2023/07/29 02:06:27;;;;;;;4.20;3.40;;;;;;;16.90;90.09;96176.55;108316;1279;24410;-76
2023/07/29 02:09:01;;;;;;;3.50;3.20;;;;;;;16.91;90.19;96181.48;108298;1276;23125;-77
2023/07/29 02:11:32;;;;;;;5.40;3.30;;;;;;;16.92;90.15;96185.52;108348;1279;22550;-77
2023/07/29 02:14:05;;;;;;;5.30;3.30;;;;;;;16.92;90.10;96183.30;108296;1279;25351;-76
2023/07/29 02:16:37;;;;;;;5.20;3.40;;;;;;;16.95;90.15;96184.91;108254;1279;25399;-76
2023/07/29 02:19:08;;;;;;;4.40;3.50;;;;;;;16.96;89.99;96185.25;108316;1279;22531;-76
2023/07/29 02:21:41;;;;;;;4.20;3.00;;;;;;;16.93;89.96;96183.33;108288;1279;25244;-77
2023/07/29 02:24:12;;;;;;;4.60;2.90;;;;;;;16.93;90.06;96182.26;108271;1272;23856;-76
2023/07/29 02:26:44;;;;;;;4.10;3.40;;;;;;;16.95;90.21;96187.37;108300;1279;22956;-76
2023/07/29 02:29:15;;;;;;;5.00;3.30;;;;;;;16.94;90.11;96184.44;108322;1272;22529;-76
2023/07/29 02:31:47;;;;;;;3.10;2.70;;;;;;;16.95;90.02;96181.80;108315;1279;22619;-76
2023/07/29 02:34:18;;;;;;;4.60;3.20;;;;;;;16.96;90.12;96180.36;108325;1279;22567;-76
2023/07/29 02:36:50;;;;;;;3.80;3.00;;;;;;;16.96;90.22;96181.59;108321;1279;22528;-77
2023/07/29 02:39:21;;;;;;;6.40;3.60;;;;;;;16.94;90.23;96179.07;108335;1280;23840;-77
2023/07/29 02:41:52;;;;;;;4.80;3.30;;;;;;;16.96;90.51;96176.92;108320;1276;22524;-76
2023/07/29 02:44:23;;;;;;;4.00;3.60;;;;;;;16.98;90.55;96176.85;108289;1273;25264;-76
2023/07/29 02:46:57;;;;;;;6.50;3.80;;;;;;;17.01;90.55;96174.63;108271;1275;22531;-76
2023/07/29 02:49:30;;;;;;;3.70;3.10;;;;;;;17.03;90.68;96174.51;108320;1279;22577;-77
2023/07/29 02:52:01;;;;;;;6.10;3.60;;;;;;;17.05;90.65;96179.00;108293;1279;22627;-77
2023/07/29 02:54:32;;;;;;;4.80;3.60;;;;;;;17.08;90.70;96177.33;108295;1279;24222;-77
2023/07/29 02:57:04;;;;;;;4.90;3.80;;;;;;;17.09;90.66;96176.08;108269;1271;23860;-76
2023/07/29 02:59:35;;;;;;;3.90;3.30;;;;;;;17.12;90.66;96173.56;108278;1279;22524;-76
2023/07/29 03:02:08;;;;;;;4.30;3.70;;;;;;;17.16;90.80;96175.70;108315;1279;22532;-76
2023/07/29 03:04:39;;;;;;;3.80;3.30;;;;;;;17.17;90.71;96175.80;108315;1279;23299;-76
2023/07/29 03:07:10;;;;;;;5.90;3.60;;;;;;;17.17;90.76;96178.73;108302;1273;22540;-77
2023/07/29 03:09:41;;;;;;;3.80;3.40;;;;;;;17.18;90.81;96177.10;108294;1279;22523;-77
2023/07/29 03:12:12;;;;;;;4.10;3.20;;;;;;;17.19;90.75;96182.19;108329;1276;22540;-76
2023/07/29 03:14:43;;;;;;;3.90;3.10;;;;;;;17.18;90.80;96180.16;108283;1276;22534;-77
2023/07/29 03:17:14;;;;;;;3.80;3.30;;;;;;;17.18;90.78;96183.28;108291;1279;23673;-77
2023/07/29 03:19:45;;;;;;;4.70;3.60;;;;;;;17.18;90.92;96185.73;108341;1279;22512;-77
2023/07/29 03:22:16;;;;;;;4.30;3.20;;;;;;;17.20;91.00;96187.71;108300;1273;24255;-76
2023/07/29 03:24:47;;;;;;;5.20;3.60;;;;;;;17.20;91.06;96187.04;108264;1279;25256;-77
2023/07/29 03:27:18;;;;;;;4.20;3.30;;;;;;;17.21;91.12;96191.73;108277;1279;24562;-77
2023/07/29 03:29:49;;;;;;;3.80;3.30;;;;;;;17.23;91.15;96192.71;108325;1276;22538;-77
2023/07/29 03:32:21;;;;;;;4.30;3.10;;;;;;;17.26;91.33;96193.96;108294;1276;22524;-77
2023/07/29 03:34:52;;;;;;;4.70;3.10;;;;;;;17.30;91.36;96196.06;108331;1256;22554;-77
2023/07/29 03:37:23;;;;;;;3.90;3.20;;;;;;;17.33;91.37;96193.91;108292;1279;22536;-76
2023/07/29 03:39:54;;;;;;;5.20;3.30;;;;;;;17.37;91.39;96199.46;108299;1279;22543;-76
2023/07/29 03:42:25;;;;;;;3.90;3.20;;;;;;;17.41;91.41;96200.27;108355;1276;25612;-76
2023/07/29 03:44:58;;;;;;;3.40;3.10;;;;;;;17.44;91.33;96196.86;108272;1279;22523;-76
2023/07/29 03:47:32;;;;;;;6.00;3.50;;;;;;;17.46;91.29;96197.64;108201;1273;25430;-77
2023/07/29 03:50:04;;;;;;;4.40;3.10;;;;;;;17.47;91.28;96197.66;108330;1279;25682;-76
2023/07/29 03:52:35;;;;;;;5.90;4.00;;;;;;;17.47;91.15;96195.74;108258;1280;22528;-77
2023/07/29 03:55:07;;;;;;;5.50;3.80;;;;;;;17.47;91.18;96196.37;108321;1279;22532;-76
2023/07/29 03:57:40;;;;;;;4.50;3.50;;;;;;;17.50;91.20;96198.23;108349;1279;24189;-77
2023/07/29 04:00:12;;;;;;;6.30;5.20;;;;;;;17.53;91.26;96198.69;108280;1272;22825;-77
2023/07/29 04:02:45;;;;;;;9.90;7.70;;;;;;;17.57;91.24;96199.80;108289;1279;25260;-77
2023/07/29 04:05:16;;;;;;;28.60;20.30;;;;;;;17.60;91.20;96202.14;108301;1279;24926;-77
2023/07/29 04:07:47;;;;;;;28.20;19.40;;;;;;;17.63;91.17;96200.95;108349;1279;24225;-77
2023/07/29 04:10:18;;;;;;;16.30;12.30;;;;;;;17.64;91.10;96192.48;108291;1279;22510;-77
2023/07/29 04:12:50;;;;;;;11.90;9.40;;;;;;;17.67;90.96;96194.09;108330;1279;22526;-77
2023/07/29 04:15:21;;;;;;;9.20;6.20;;;;;;;17.67;91.04;96191.65;108304;1279;22525;-77
2023/07/29 04:17:52;;;;;;;6.50;5.50;;;;;;;17.68;91.14;96188.79;108350;1279;22514;-77
2023/07/29 04:20:24;;;;;;;7.20;6.50;;;;;;;17.70;91.11;96188.11;108326;1276;22748;-77
2023/07/29 04:22:57;;;;;;;5.80;4.20;;;;;;;17.74;91.08;96191.29;108341;1279;22521;-77
2023/07/29 04:25:31;;;;;;;4.40;3.30;;;;;;;17.74;91.06;96199.06;108332;1272;22561;-77
2023/07/29 04:28:03;;;;;;;5.20;3.60;;;;;;;17.75;91.11;96196.40;108330;1276;25266;-77
2023/07/29 04:30:34;;;;;;;3.70;3.10;;;;;;;17.78;91.01;96195.81;108307;1279;22536;-77
2023/07/29 04:33:06;;;;;;;4.00;3.40;;;;;;;17.83;91.06;96202.00;108329;1279;22843;-77
2023/07/29 04:35:37;;;;;;;3.70;2.80;;;;;;;17.86;91.07;96203.78;108329;1279;22606;-77
2023/07/29 04:38:08;;;;;;;3.90;3.50;;;;;;;17.90;90.94;96203.60;108349;1276;24292;-77
2023/07/29 04:40:41;;;;;;;3.80;2.70;;;;;;;17.93;90.91;96207.69;108345;1276;22617;-77
2023/07/29 04:43:12;;;;;;;5.20;3.60;;;;;;;17.95;90.84;96206.83;108316;1272;22511;-77
2023/07/29 04:45:46;;;;;;;5.20;3.70;;;;;;;17.97;90.85;96210.87;108199;1256;148498;-77
2023/07/29 04:48:17;;;;;;;4.40;3.40;;;;;;;18.00;90.87;96210.04;108273;1279;22531;-77
2023/07/29 04:50:48;;;;;;;4.80;3.00;;;;;;;18.03;90.82;96209.99;108331;1277;22530;-77
2023/07/29 04:53:19;;;;;;;4.30;3.50;;;;;;;18.05;90.69;96215.73;108329;1279;22520;-77
2023/07/29 04:55:50;;;;;;;5.30;3.30;;;;;;;18.08;90.80;96219.29;108286;1279;22529;-77
2023/07/29 04:58:22;;;;;;;3.50;3.10;;;;;;;18.13;90.77;96221.78;108357;1279;22606;-77
2023/07/29 05:00:56;;;;;;;4.50;3.60;;;;;;;18.16;90.55;96225.26;108297;1279;22527;-77
2023/07/29 05:03:30;;;;;;;4.50;3.40;;;;;;;18.19;90.48;96226.96;108312;1279;23684;-77
2023/07/29 05:06:04;;;;;;;5.50;3.40;;;;;;;18.22;90.60;96231.06;108298;1279;22688;-77
2023/07/29 05:08:37;;;;;;;5.20;3.40;;;;;;;18.27;90.39;96232.20;108315;1279;22544;-77
2023/07/29 05:11:08;;;;;;;4.70;3.20;;;;;;;18.30;90.25;96232.76;108295;1279;22527;-77
2023/07/29 05:13:40;;;;;;;4.50;3.00;;;;;;;18.35;89.98;96237.66;108337;1276;24201;-77
2023/07/29 05:16:10;;;;;;;4.00;3.10;;;;;;;18.39;89.70;96239.08;108351;1279;23936;-77
2023/07/29 05:18:43;;;;;;;7.10;3.10;;;;;;;18.44;89.63;96244.20;108307;1279;25419;-77
2023/07/29 05:21:15;;;;;;;4.00;2.90;;;;;;;18.50;89.63;96242.18;108321;1279;22517;-77
2023/07/29 05:23:46;;;;;;;5.00;3.40;;;;;;;18.85;91.06;96241.83;108300;1272;22563;-77
2023/07/29 05:26:17;;;;;;;3.20;2.80;;;;;;;20.45;93.13;96238.20;108321;1272;25549;-77
2023/07/29 05:28:51;;;;;;;6.10;3.00;;;;;;;22.10;89.76;96234.50;108298;1272;27488;-77
2023/07/29 05:31:23;;;;;;;3.70;3.10;;;;;;;23.56;86.59;96234.92;108332;1276;24232;-77
2023/07/29 05:33:54;;;;;;;5.80;2.80;;;;;;;24.75;82.80;96232.37;108342;1272;22517;-77
2023/07/29 05:36:24;;;;;;;4.30;3.20;;;;;;;25.60;79.96;96230.86;108299;1279;22539;-77
2023/07/29 05:38:58;;;;;;;4.80;2.80;;;;;;;26.05;75.41;96232.50;108317;1271;24035;-77
2023/07/29 05:41:36;;;;;;;3.90;2.60;;;;;;;26.27;74.83;96237.69;108348;1279;26360;-77
2023/07/29 05:44:07;;;;;;;4.00;2.90;;;;;;;27.05;73.76;96239.75;108315;1279;22539;-77
2023/07/29 05:46:38;;;;;;;4.40;2.60;;;;;;;27.67;71.27;96237.39;108217;1274;24277;-77
2023/07/29 05:49:10;;;;;;;3.10;2.50;;;;;;;28.48;70.24;96229.15;108331;1276;25326;-77
2023/07/29 05:51:41;;;;;;;3.50;2.70;;;;;;;29.57;68.37;96226.69;108327;1271;22523;-77
2023/07/29 05:54:12;;;;;;;3.10;2.30;;;;;;;30.29;65.89;96225.95;108344;1279;22535;-77
2023/07/29 05:56:44;;;;;;;2.50;2.30;;;;;;;30.65;63.74;96221.29;108302;1272;22523;-77
2023/07/29 05:59:15;;;;;;;3.60;2.50;;;;;;;31.07;62.51;96225.96;108356;1279;22530;-77
2023/07/29 06:01:49;;;;;;;3.40;2.60;;;;;;;31.17;59.73;96227.04;108345;1279;22523;-77
2023/07/29 06:04:20;;;;;;;3.00;2.30;;;;;;;31.43;58.83;96228.54;108277;1279;24273;-77
2023/07/29 06:06:51;;;;;;;2.90;2.40;;;;;;;31.76;57.41;96228.39;108269;1271;23501;-77
2023/07/29 06:09:22;;;;;;;3.10;2.10;;;;;;;32.11;56.52;96226.09;108354;1279;23289;-77
2023/07/29 06:11:53;;;;;;;3.00;2.30;;;;;;;32.09;54.69;96229.27;108346;1279;23739;-77
2023/07/29 06:14:25;;;;;;;2.60;2.00;;;;;;;32.30;54.67;96229.15;108298;1272;22538;-78
2023/07/29 06:16:56;;;;;;;3.50;2.20;;;;;;;32.64;52.53;96222.20;108337;1279;24239;-77
2023/07/29 06:19:27;;;;;;;3.00;2.40;;;;;;;32.52;52.55;96227.45;108320;1279;23714;-77
2023/07/29 06:22:08;;;;;;;2.20;2.00;;;;;;;32.62;51.54;96227.10;108290;1279;22541;-77
2023/07/29 06:24:41;;;;;;;3.10;2.30;;;;;;;32.59;50.05;96228.44;108388;1272;22916;-77
2023/07/29 06:27:12;;;;;;;3.90;2.20;;;;;;;31.73;47.66;96228.10;108275;1279;24432;-77
2023/07/29 06:29:44;;;;;;;3.60;2.30;;;;;;;30.96;48.47;96229.23;108346;1271;22515;-77
2023/07/29 06:32:17;;;;;;;2.60;2.00;;;;;;;31.01;48.74;96227.10;108295;1272;26563;-77
2023/07/29 06:34:48;;;;;;;2.00;1.80;;;;;;;30.97;48.84;96224.44;108345;1279;22853;-77
2023/07/29 06:37:19;;;;;;;2.60;2.00;;;;;;;30.98;48.57;96229.73;108308;1272;22613;-77
2023/07/29 06:39:51;;;;;;;2.10;2.00;;;;;;;30.68;47.80;96228.50;108298;1271;22531;-77
2023/07/29 06:42:22;;;;;;;3.40;2.00;;;;;;;30.22;48.33;96227.86;108328;1279;23435;-77
2023/07/29 06:44:53;;;;;;;2.20;1.80;;;;;;;30.19;48.18;96227.85;108260;1279;22516;-77
2023/07/29 06:47:24;;;;;;;2.40;2.10;;;;;;;29.80;47.76;96225.06;108324;1279;25427;-77
2023/07/29 06:50:01;;;;;;;2.30;2.10;;;;;;;29.67;48.20;96222.67;108354;1271;23348;-77
2023/07/29 06:52:32;;;;;;;2.10;1.70;;;;;;;29.86;48.41;96223.80;108319;1272;24098;-77
2023/07/29 06:55:04;;;;;;;2.30;1.80;;;;;;;29.95;48.23;96226.70;108333;1279;25281;-77
2023/07/29 06:57:35;;;;;;;2.20;1.80;;;;;;;30.08;48.14;96226.29;108339;1268;22589;-77
2023/07/29 07:00:11;;;;;;;2.20;1.80;;;;;;;29.96;47.09;96227.17;108340;1272;25434;-77
2023/07/29 07:02:42;;;;;;;2.00;1.80;;;;;;;30.13;48.19;96230.02;108319;1271;22513;-77
2023/07/29 07:05:14;;;;;;;2.10;1.70;;;;;;;30.72;47.78;96225.08;108310;1279;22589;-77
2023/07/29 07:07:45;;;;;;;1.90;1.70;;;;;;;30.90;47.07;96224.34;108307;1279;22532;-77
2023/07/29 07:10:17;;;;;;;2.10;1.70;;;;;;;31.20;47.12;96225.33;108299;1279;23845;-77
2023/07/29 07:12:51;;;;;;;2.40;1.60;;;;;;;31.75;47.25;96223.30;108321;1279;25580;-77
2023/07/29 07:15:22;;;;;;;1.80;1.70;;;;;;;32.34;46.33;96224.67;108295;1279;22514;-77
2023/07/29 07:17:54;;;;;;;1.90;1.60;;;;;;;32.33;45.40;96224.40;108331;1276;22865;-77
2023/07/29 07:20:25;;;;;;;3.90;2.20;;;;;;;32.27;45.45;96225.14;108356;1279;25439;-77
2023/07/29 07:23:00;;;;;;;1.80;1.60;;;;;;;32.98;45.46;96219.72;108341;1272;22629;-77
2023/07/29 07:25:34;;;;;;;3.30;2.00;;;;;;;33.34;44.94;96217.85;108308;1279;22622;-77
2023/07/29 07:28:06;;;;;;;3.50;2.10;;;;;;;33.41;44.04;96215.30;108328;1271;24270;-77
2023/07/29 07:30:40;;;;;;;1.60;1.50;;;;;;;33.36;44.11;96214.56;108302;1279;25244;-77
2023/07/29 07:33:11;;;;;;;1.90;1.30;;;;;;;33.86;44.14;96211.67;108339;1272;22518;-77
2023/07/29 07:35:43;;;;;;;2.80;1.80;;;;;;;34.10;43.46;96215.72;108321;1277;22513;-77
2023/07/29 07:38:15;;;;;;;2.60;1.70;;;;;;;34.02;43.02;96213.92;108333;1279;22542;-77
2023/07/29 07:40:58;;;;;;;1.60;1.30;;;;;;;33.55;41.99;96216.68;108317;1274;27735;-77
2023/07/29 07:43:29;;;;;;;1.40;1.30;;;;;;;33.15;42.22;96215.65;108321;1276;25462;-77
2023/07/29 07:46:06;;;;;;;1.80;1.60;;;;;;;32.77;42.58;96219.88;108270;1276;25345;-77
2023/07/29 07:48:38;;;;;;;1.80;1.20;;;;;;;33.17;43.33;96215.81;108337;1279;25268;-77
2023/07/29 07:51:37;;;;;;;2.30;1.40;;;;;;;33.45;42.21;96216.70;108306;1272;22611;-77
2023/07/29 07:54:08;;;;;;;2.90;1.40;;;;;;;33.54;42.24;96217.29;108039;1276;22534;-77
2023/07/29 07:56:39;;;;;;;2.10;1.30;;;;;;;32.99;41.37;96220.48;108053;1283;22531;-77
2023/07/29 07:59:10;;;;;;;1.30;1.20;;;;;;;32.64;42.29;96218.88;108025;1277;22554;-77
2023/07/29 08:01:42;;;;;;;1.50;1.10;;;;;;;32.96;42.51;96212.16;108042;1283;22521;-77
2023/07/29 08:04:13;;;;;;;1.20;1.00;;;;;;;32.92;41.86;96211.03;108087;1283;22574;-77
2023/07/29 08:06:44;;;;;;;1.40;1.30;;;;;;;32.58;41.31;96207.90;108025;1277;22618;-77
2023/07/29 08:09:15;;;;;;;1.60;1.30;;;;;;;32.04;41.58;96210.17;108018;1283;24223;-77
2023/07/29 08:11:49;;;;;;;2.30;1.50;;;;;;;31.82;42.18;96206.31;108063;1272;22543;-77
2023/07/29 08:14:23;;;;;;;1.60;1.20;;;;;;;31.54;42.26;96201.98;108316;1272;23833;-77
2023/07/29 08:16:53;;;;;;;1.10;1.00;;;;;;;30.80;41.89;96204.33;108304;1279;22508;-77
2023/07/29 08:19:24;;;;;;;2.60;1.40;;;;;;;30.58;42.97;96201.69;108291;1272;22557;-77
2023/07/29 08:21:56;;;;;;;2.50;1.40;;;;;;;29.76;42.85;96201.52;108336;1279;23784;-77
2023/07/29 08:24:30;;;;;;;1.50;1.40;;;;;;;29.37;44.10;96200.89;108325;1272;23817;-77
2023/07/29 08:27:01;;;;;;;1.40;1.30;;;;;;;29.32;44.36;96199.23;108313;1279;24839;-77
2023/07/29 08:29:32;;;;;;;3.40;1.20;;;;;;;28.98;44.75;96200.99;108340;1279;25288;-77
2023/07/29 08:32:05;;;;;;;1.30;1.20;;;;;;;28.65;45.22;96200.09;108317;1272;22545;-77
2023/07/29 08:34:39;;;;;;;1.50;1.40;;;;;;;28.52;45.93;96198.73;108343;1275;22518;-77
2023/07/29 08:37:10;;;;;;;1.60;1.10;;;;;;;28.30;46.25;96197.08;108325;1279;25365;-77
2023/07/29 08:39:42;;;;;;;1.50;1.20;;;;;;;28.07;46.61;96193.83;108333;1272;23521;-77
2023/07/29 08:42:14;;;;;;;2.10;1.50;;;;;;;27.73;46.70;96190.35;108372;1279;22641;-77
2023/07/29 08:44:46;;;;;;;1.80;1.50;;;;;;;27.64;47.84;96191.11;108315;1274;24197;-77
2023/07/29 08:47:17;;;;;;;1.50;1.30;;;;;;;27.82;48.38;96190.84;108304;1272;23807;-77
2023/07/29 08:49:51;;;;;;;2.40;1.60;;;;;;;27.68;48.19;96193.33;108321;1279;22521;-77
2023/07/29 08:52:26;;;;;;;2.00;1.60;;;;;;;27.42;49.11;96198.68;108357;1279;22517;-77
2023/07/29 08:54:58;;;;;;;1.50;1.40;;;;;;;27.39;50.21;96199.48;108361;1279;22543;-77
2023/07/29 08:57:29;;;;;;;2.40;1.50;;;;;;;27.32;50.30;96199.06;108310;1276;22699;-77
2023/07/29 09:00:02;;;;;;;2.50;1.70;;;;;;;27.28;51.04;96192.23;108334;1279;22524;-77
2023/07/29 09:02:34;;;;;;;2.40;1.30;;;;;;;27.21;50.53;96187.06;108291;1274;23042;-77
2023/07/29 09:05:06;;;;;;;1.30;1.20;;;;;;;26.84;50.74;96185.48;108401;1279;24423;-77
2023/07/29 09:07:39;;;;;;;2.50;1.40;;;;;;;26.68;51.80;96183.52;108327;1272;23820;-77
2023/07/29 09:10:14;;;;;;;3.20;1.90;;;;;;;26.62;52.35;96179.73;108353;1279;22685;-77
2023/07/29 09:12:46;;;;;;;3.90;1.40;;;;;;;26.77;52.85;96177.66;108354;1279;22749;-77
2023/07/29 09:15:29;;;;;;;2.80;1.80;;;;;;;27.16;53.20;96177.21;108373;1278;25271;-77
2023/07/29 09:18:11;;;;;;;2.20;1.60;;;;;;;27.54;52.25;96173.73;108355;1280;23558;-77
2023/07/29 09:20:42;;;;;;;2.80;2.00;;;;;;;27.29;51.47;96179.56;108361;1279;24818;-77
2023/07/29 09:23:13;;;;;;;2.70;1.70;;;;;;;26.63;51.94;96187.79;108323;1272;25248;-77
2023/07/29 09:25:46;;;;;;;2.10;1.50;;;;;;;26.12;52.79;96196.55;108302;1279;23791;-77
2023/07/29 09:28:19;;;;;;;2.00;1.60;;;;;;;25.67;52.83;96196.05;108371;1279;26592;-77
2023/07/29 09:30:51;;;;;;;2.10;1.60;;;;;;;25.45;53.51;96192.98;108331;1272;23400;-77
2023/07/29 09:33:22;;;;;;;1.70;1.60;;;;;;;25.45;54.05;96187.00;108375;1279;25955;-77
2023/07/29 09:35:54;;;;;;;3.20;1.60;;;;;;;25.42;54.19;96185.15;108309;1279;24985;-76
2023/07/29 09:38:31;;;;;;;2.60;2.20;;;;;;;25.24;54.41;96184.94;108325;1279;22547;-77
2023/07/29 09:41:03;;;;;;;6.20;2.30;;;;;;;24.92;55.28;96188.30;108404;1272;25304;-77
2023/07/29 09:43:36;;;;;;;5.80;2.60;;;;;;;24.57;56.25;96187.27;108302;1276;22520;-76
2023/07/29 09:46:08;;;;;;;2.00;1.80;;;;;;;24.36;57.36;96192.03;108360;1279;24242;-77
2023/07/29 09:48:41;;;;;;;4.00;2.20;;;;;;;23.89;57.57;96198.30;108348;1279;22544;-77
2023/07/29 09:51:17;;;;;;;4.20;2.40;;;;;;;23.30;59.26;96208.30;108323;1276;22527;-77
2023/07/29 09:53:51;;;;;;;2.20;2.00;;;;;;;22.85;60.33;96212.16;108329;1279;22656;-77
2023/07/29 09:56:28;;;;;;;2.70;2.00;;;;;;;22.49;61.91;96213.38;108345;1268;22520;-77
2023/07/29 10:02:49;;;;;;;2.40;2.10;;;;;;;22.15;64.27;96203.85;108260;1279;26361;-77
2023/07/29 10:05:21;;;;;;;3.20;2.40;;;;;;;22.19;65.17;96211.00;108376;1279;22518;-77
2023/07/29 10:07:53;;;;;;;4.30;2.10;;;;;;;22.21;65.62;96222.59;108329;1256;22589;-77
2023/07/29 10:10:25;;;;;;;1.80;1.40;;;;;;;22.07;65.57;96235.26;108364;1279;24244;-77
2023/07/29 10:13:01;;;;;;;2.00;1.50;;;;;;;21.77;65.27;96244.46;108317;1279;22520;-77
2023/07/29 10:15:34;;;;;;;4.80;1.80;;;;;;;21.44;65.85;96237.31;108350;1280;22567;-77
2023/07/29 10:18:05;;;;;;;4.00;2.40;;;;;;;21.41;67.01;96234.80;108341;1272;24270;-77
2023/07/29 10:20:38;;;;;;;2.30;1.60;;;;;;;21.52;67.98;96238.07;108352;1279;22561;-77
2023/07/29 10:23:12;;;;;;;3.00;2.20;;;;;;;21.71;69.08;96241.19;108326;1256;22561;-77
2023/07/29 10:25:54;;;;;;;2.60;1.80;;;;;;;21.88;69.89;96247.11;108317;1279;24435;-77
2023/07/29 10:28:35;;;;;;;3.50;1.80;;;;;;;21.98;70.09;96239.80;108321;1280;22539;-77
2023/07/29 10:31:06;;;;;;;1.70;1.60;;;;;;;22.01;69.88;96230.05;108319;1279;24017;-77
2023/07/29 10:33:39;;;;;;;2.30;1.80;;;;;;;21.97;69.61;96228.84;108306;1279;26479;-77
2023/07/29 10:36:12;;;;;;;2.80;1.80;;;;;;;22.02;70.35;96228.77;108336;1280;25271;-77
2023/07/29 10:38:44;;;;;;;2.30;1.60;;;;;;;22.24;71.00;96224.04;108326;1276;22507;-77
2023/07/29 10:41:15;;;;;;;2.80;1.70;;;;;;;22.47;70.72;96215.13;108357;1280;24325;-77
2023/07/29 10:43:49;;;;;;;2.70;1.60;;;;;;;22.63;70.46;96215.73;108359;1278;22508;-77
2023/07/29 10:46:22;;;;;;;2.80;1.80;;;;;;;22.77;70.61;96213.59;108322;1279;22663;-77
2023/07/29 10:49:00;;;;;;;2.30;1.70;;;;;;;22.89;70.36;96203.50;108337;1279;25523;-75
2023/07/29 10:51:35;;;;;;;2.00;1.40;;;;;;;22.97;69.56;96206.23;108343;1279;22531;-75
2023/07/29 10:54:15;;;;;;;1.90;1.60;;;;;;;23.07;69.65;96209.75;108361;1276;22564;-75
2023/07/29 10:56:54;;;;;;;3.90;2.10;;;;;;;23.30;69.90;96215.95;108351;1272;24912;-77
2023/07/29 10:59:38;;;;;;;3.20;1.60;;;;;;;23.51;69.95;96209.31;108361;1277;25417;-77
2023/07/29 11:02:19;;;;;;;2.10;1.90;;;;;;;23.80;69.67;96200.63;108317;1278;23958;-77
2023/07/29 11:04:52;;;;;;;1.60;1.50;;;;;;;24.01;69.95;96198.95;108349;1279;22535;-77
2023/07/29 11:07:29;;;;;;;2.80;1.70;;;;;;;24.11;69.18;96196.24;108307;1276;22572;-77
2023/07/29 11:10:06;;;;;;;7.50;2.00;;;;;;;24.00;68.70;96191.13;108400;1277;22631;-77
2023/07/29 11:12:47;;;;;;;1.80;1.50;;;;;;;23.94;68.95;96186.14;108300;1279;22520;-77
2023/07/29 11:15:23;;;;;;;2.30;1.30;;;;;;;23.87;68.59;96188.31;108342;1277;22531;-77
2023/07/29 11:17:58;;;;;;;1.60;1.40;;;;;;;23.78;69.16;96187.92;108366;1279;22549;-77
2023/07/29 11:20:31;;;;;;;2.00;1.80;;;;;;;23.92;69.32;96188.52;108377;1279;26416;-77
2023/07/29 11:23:06;;;;;;;1.80;1.70;;;;;;;23.88;68.69;96188.16;108343;1275;22507;-77
2023/07/29 11:25:38;;;;;;;2.70;1.70;;;;;;;23.77;68.76;96191.23;108352;1278;22555;-77
2023/07/29 11:28:09;;;;;;;2.70;1.30;;;;;;;23.79;69.04;96193.50;108327;1279;25424;-77
2023/07/29 11:30:45;;;;;;;2.90;1.70;;;;;;;23.82;68.71;96189.73;108340;1277;22639;-77
2023/07/29 11:33:18;;;;;;;3.50;1.70;;;;;;;23.69;68.74;96190.11;108347;1279;23410;-77
2023/07/29 11:35:50;;;;;;;3.00;1.70;;;;;;;23.67;69.37;96190.39;108336;1280;23745;-77
2023/07/29 11:38:23;;;;;;;3.00;1.70;;;;;;;23.81;69.89;96186.25;108360;1279;22568;-77
2023/07/29 11:41:03;;;;;;;2.40;1.80;;;;;;;24.07;69.96;96186.92;108358;1272;22676;-77
2023/07/29 11:43:38;;;;;;;2.40;1.90;;;;;;;24.26;69.98;96189.61;108373;1272;22602;-77
2023/07/29 11:46:09;;;;;;;2.80;1.80;;;;;;;24.32;69.45;96186.34;108317;1280;23631;-77
2023/07/29 11:48:40;;;;;;;1.60;1.50;;;;;;;24.31;68.55;96179.14;108348;1278;22517;-77
2023/07/29 11:51:11;;;;;;;2.40;1.90;;;;;;;24.22;68.46;96176.35;108315;1272;22879;-77
2023/07/29 11:53:44;;;;;;;1.80;1.60;;;;;;;24.22;68.73;96168.38;108321;1276;22550;-77